sensor_id;sensor_type;location;lat;lon;timestamp;pressure;altitude;pressure_sealevel;temperature;humidity
41044;BME280;51680;49.806;18.774;2024-01-27T00:00:08;97768.97;;;6.91;84.33
41044;BME280;51680;49.806;18.774;2024-01-27T00:03:12;97791.00;;;6.82;84.07
41044;BME280;51680;49.806;18.774;2024-01-27T00:06:14;97775.69;;;6.76;83.56
41044;BME280;51680;49.806;18.774;2024-01-27T00:09:16;97808.72;;;6.73;83.27
41044;BME280;51680;49.806;18.774;2024-01-27T00:12:17;97812.28;;;6.70;83.76
41044;BME280;51680;49.806;18.774;2024-01-27T00:15:21;97827.69;;;6.73;83.83
41044;BME280;51680;49.806;18.774;2024-01-27T00:18:23;97838.13;;;6.72;84.06
41044;BME280;51680;49.806;18.774;2024-01-27T00:21:25;97833.16;;;6.67;83.81
41044;BME280;51680;49.806;18.774;2024-01-27T00:24:26;97847.09;;;6.65;83.51
41044;BME280;51680;49.806;18.774;2024-01-27T00:27:28;97844.75;;;6.59;83.68
41044;BME280;51680;49.806;18.774;2024-01-27T00:30:31;97845.84;;;6.53;83.27
41044;BME280;51680;49.806;18.774;2024-01-27T00:33:33;97846.19;;;6.44;83.57
41044;BME280;51680;49.806;18.774;2024-01-27T00:36:36;97832.63;;;6.38;82.91
41044;BME280;51680;49.806;18.774;2024-01-27T00:39:38;97859.72;;;6.31;83.06
41044;BME280;51680;49.806;18.774;2024-01-27T00:42:40;97860.81;;;6.25;82.82
41044;BME280;51680;49.806;18.774;2024-01-27T00:46:02;97874.91;;;6.18;82.08
41044;BME280;51680;49.806;18.774;2024-01-27T00:49:04;97881.16;;;6.13;82.09
41044;BME280;51680;49.806;18.774;2024-01-27T00:52:06;97900.22;;;6.12;82.44
41044;BME280;51680;49.806;18.774;2024-01-27T00:55:08;97909.63;;;6.14;82.81
41044;BME280;51680;49.806;18.774;2024-01-27T00:58:10;97920.72;;;6.18;82.53
41044;BME280;51680;49.806;18.774;2024-01-27T01:01:13;97910.97;;;6.24;82.61
41044;BME280;51680;49.806;18.774;2024-01-27T01:04:15;97921.31;;;6.24;82.77
41044;BME280;51680;49.806;18.774;2024-01-27T01:07:17;97927.28;;;6.26;82.64
41044;BME280;51680;49.806;18.774;2024-01-27T01:10:19;97934.97;;;6.29;82.54
41044;BME280;51680;49.806;18.774;2024-01-27T01:13:21;97925.31;;;6.33;82.10
41044;BME280;51680;49.806;18.774;2024-01-27T01:16:24;97928.81;;;6.32;82.16
41044;BME280;51680;49.806;18.774;2024-01-27T01:19:25;97923.69;;;6.30;81.35
41044;BME280;51680;49.806;18.774;2024-01-27T01:22:28;97928.81;;;6.32;81.00
41044;BME280;51680;49.806;18.774;2024-01-27T01:25:29;97946.91;;;6.33;81.70
41044;BME280;51680;49.806;18.774;2024-01-27T01:28:31;97951.94;;;6.36;80.47
41044;BME280;51680;49.806;18.774;2024-01-27T01:31:34;97946.91;;;6.33;80.58
41044;BME280;51680;49.806;18.774;2024-01-27T01:34:36;97953.00;;;6.32;80.44
41044;BME280;51680;49.806;18.774;2024-01-27T01:37:38;97938.25;;;6.33;80.01
41044;BME280;51680;49.806;18.774;2024-01-27T01:40:40;97954.72;;;6.32;79.53
41044;BME280;51680;49.806;18.774;2024-01-27T01:43:42;97956.38;;;6.34;79.12
41044;BME280;51680;49.806;18.774;2024-01-27T01:46:45;97954.50;;;6.38;78.47
41044;BME280;51680;49.806;18.774;2024-01-27T01:49:47;97959.69;;;6.38;79.02
41044;BME280;51680;49.806;18.774;2024-01-27T01:52:48;97956.25;;;6.37;78.55
41044;BME280;51680;49.806;18.774;2024-01-27T01:55:51;97950.31;;;6.34;78.23
41044;BME280;51680;49.806;18.774;2024-01-27T01:58:54;97954.00;;;6.28;77.60
41044;BME280;51680;49.806;18.774;2024-01-27T02:01:57;97947.97;;;6.28;77.59
41044;BME280;51680;49.806;18.774;2024-01-27T02:04:59;97944.41;;;6.30;77.20
41044;BME280;51680;49.806;18.774;2024-01-27T02:08:02;97940.81;;;6.34;77.65
41044;BME280;51680;49.806;18.774;2024-01-27T02:11:04;97957.13;;;6.36;77.46
41044;BME280;51680;49.806;18.774;2024-01-27T02:14:06;97946.56;;;6.42;76.88
41044;BME280;51680;49.806;18.774;2024-01-27T02:17:09;97941.28;;;6.44;76.95
41044;BME280;51680;49.806;18.774;2024-01-27T02:20:11;97940.44;;;6.43;77.11
41044;BME280;51680;49.806;18.774;2024-01-27T02:23:13;97938.94;;;6.38;77.33
41044;BME280;51680;49.806;18.774;2024-01-27T02:26:16;97934.72;;;6.35;77.32
41044;BME280;51680;49.806;18.774;2024-01-27T02:29:18;97932.13;;;6.35;77.05
41044;BME280;51680;49.806;18.774;2024-01-27T02:32:20;97930.44;;;6.34;76.57
41044;BME280;51680;49.806;18.774;2024-01-27T02:35:22;97934.84;;;6.32;76.59
41044;BME280;51680;49.806;18.774;2024-01-27T02:38:23;97918.69;;;6.26;76.05
41044;BME280;51680;49.806;18.774;2024-01-27T02:41:26;97920.59;;;6.21;75.57
41044;BME280;51680;49.806;18.774;2024-01-27T02:44:28;97920.59;;;6.21;75.28
41044;BME280;51680;49.806;18.774;2024-01-27T02:47:30;97936.88;;;6.24;74.96
41044;BME280;51680;49.806;18.774;2024-01-27T02:50:32;97938.41;;;6.30;75.11
41044;BME280;51680;49.806;18.774;2024-01-27T02:53:34;97938.31;;;6.31;75.33
41044;BME280;51680;49.806;18.774;2024-01-27T02:56:37;97948.69;;;6.31;74.97
41044;BME280;51680;49.806;18.774;2024-01-27T02:59:39;97939.28;;;6.29;75.60
41044;BME280;51680;49.806;18.774;2024-01-27T03:02:41;97950.47;;;6.31;75.34
41044;BME280;51680;49.806;18.774;2024-01-27T03:05:43;97941.78;;;6.32;74.85
41044;BME280;51680;49.806;18.774;2024-01-27T03:08:45;97946.03;;;6.33;75.31
41044;BME280;51680;49.806;18.774;2024-01-27T03:11:48;97960.69;;;6.34;74.67
41044;BME280;51680;49.806;18.774;2024-01-27T03:14:50;97959.97;;;6.30;74.80
41044;BME280;51680;49.806;18.774;2024-01-27T03:17:52;97957.38;;;6.30;74.53
41044;BME280;51680;49.806;18.774;2024-01-27T03:20:54;97957.50;;;6.27;74.32
41044;BME280;51680;49.806;18.774;2024-01-27T03:24:14;97955.88;;;6.25;74.23
41044;BME280;51680;49.806;18.774;2024-01-27T03:27:18;97949.03;;;6.22;73.98
41044;BME280;51680;49.806;18.774;2024-01-27T03:30:19;97957.78;;;6.20;73.94
41044;BME280;51680;49.806;18.774;2024-01-27T03:33:21;97969.06;;;6.19;73.74
41044;BME280;51680;49.806;18.774;2024-01-27T03:36:24;97969.06;;;6.19;73.76
41044;BME280;51680;49.806;18.774;2024-01-27T03:39:26;97967.19;;;6.22;73.67
41044;BME280;51680;49.806;18.774;2024-01-27T03:42:29;97968.22;;;6.18;73.34
41044;BME280;51680;49.806;18.774;2024-01-27T03:45:31;97963.25;;;6.12;72.56
41044;BME280;51680;49.806;18.774;2024-01-27T03:48:33;97970.25;;;6.10;72.65
41044;BME280;51680;49.806;18.774;2024-01-27T03:51:35;97964.97;;;6.13;72.40
41044;BME280;51680;49.806;18.774;2024-01-27T03:54:37;97977.91;;;6.13;72.15
41044;BME280;51680;49.806;18.774;2024-01-27T03:57:41;97973.75;;;6.09;71.35
41044;BME280;51680;49.806;18.774;2024-01-27T04:00:42;97979.03;;;6.06;71.79
41044;BME280;51680;49.806;18.774;2024-01-27T04:03:44;97992.78;;;6.08;71.64
41044;BME280;51680;49.806;18.774;2024-01-27T04:06:46;97991.94;;;6.08;71.34
41044;BME280;51680;49.806;18.774;2024-01-27T04:09:48;98003.16;;;6.08;71.70
41044;BME280;51680;49.806;18.774;2024-01-27T04:12:51;98018.75;;;6.07;70.50
41044;BME280;51680;49.806;18.774;2024-01-27T04:15:53;98013.53;;;6.08;70.77
41044;BME280;51680;49.806;18.774;2024-01-27T04:18:54;98029.16;;;6.05;70.72
41044;BME280;51680;49.806;18.774;2024-01-27T04:21:56;98025.72;;;6.05;71.04
41044;BME280;51680;49.806;18.774;2024-01-27T04:24:59;98024.84;;;6.06;70.55
41044;BME280;51680;49.806;18.774;2024-01-27T04:28:03;98025.81;;;6.03;70.70
41044;BME280;51680;49.806;18.774;2024-01-27T04:31:05;98022.31;;;6.04;70.58
41044;BME280;51680;49.806;18.774;2024-01-27T04:34:07;98017.13;;;6.04;70.99
41044;BME280;51680;49.806;18.774;2024-01-27T04:37:09;98036.94;;;6.05;70.85
41044;BME280;51680;49.806;18.774;2024-01-27T04:40:10;98034.25;;;6.08;70.49
41044;BME280;51680;49.806;18.774;2024-01-27T04:43:15;98042.81;;;6.10;70.35
41044;BME280;51680;49.806;18.774;2024-01-27T04:46:17;98045.56;;;6.06;70.51
41044;BME280;51680;49.806;18.774;2024-01-27T04:49:19;98048.91;;;6.09;71.07
41044;BME280;51680;49.806;18.774;2024-01-27T04:52:21;98054.19;;;6.06;70.66
41044;BME280;51680;49.806;18.774;2024-01-27T04:55:23;98060.25;;;6.05;70.54
41044;BME280;51680;49.806;18.774;2024-01-27T04:58:26;98055.09;;;6.05;70.76
41044;BME280;51680;49.806;18.774;2024-01-27T05:01:27;98058.78;;;5.98;70.83
41044;BME280;51680;49.806;18.774;2024-01-27T05:04:29;98068.25;;;5.99;71.24
41044;BME280;51680;49.806;18.774;2024-01-27T05:07:31;98081.31;;;5.96;70.67
41044;BME280;51680;49.806;18.774;2024-01-27T05:10:33;98078.63;;;5.99;71.21
41044;BME280;51680;49.806;18.774;2024-01-27T05:13:36;98077.81;;;5.97;70.74
41044;BME280;51680;49.806;18.774;2024-01-27T05:16:38;98071.00;;;5.95;70.96
41044;BME280;51680;49.806;18.774;2024-01-27T05:19:40;98062.41;;;5.94;70.43
41044;BME280;51680;49.806;18.774;2024-01-27T05:22:42;98088.34;;;5.93;70.10
41044;BME280;51680;49.806;18.774;2024-01-27T05:25:44;98083.00;;;5.97;69.89
41044;BME280;51680;49.806;18.774;2024-01-27T05:28:47;98079.69;;;5.94;69.94
41044;BME280;51680;49.806;18.774;2024-01-27T05:31:49;98097.84;;;5.92;70.02
41044;BME280;51680;49.806;18.774;2024-01-27T05:34:51;98092.69;;;5.92;69.84
41044;BME280;51680;49.806;18.774;2024-01-27T05:37:53;98084.19;;;5.89;69.98
41044;BME280;51680;49.806;18.774;2024-01-27T05:40:55;98095.28;;;5.92;69.39
41044;BME280;51680;49.806;18.774;2024-01-27T05:43:58;98099.50;;;5.95;69.74
41044;BME280;51680;49.806;18.774;2024-01-27T05:46:59;98093.53;;;5.93;69.45
41044;BME280;51680;49.806;18.774;2024-01-27T05:50:02;98097.81;;;5.94;68.89
41044;BME280;51680;49.806;18.774;2024-01-27T05:53:05;98099.63;;;5.92;69.23
41044;BME280;51680;49.806;18.774;2024-01-27T05:56:06;98097.81;;;5.94;69.37
41044;BME280;51680;49.806;18.774;2024-01-27T05:59:09;98103.84;;;5.94;68.96
41044;BME280;51680;49.806;18.774;2024-01-27T06:02:11;98088.41;;;5.91;68.76
41044;BME280;51680;49.806;18.774;2024-01-27T06:05:13;98086.72;;;5.90;68.75
41044;BME280;51680;49.806;18.774;2024-01-27T06:08:15;98085.91;;;5.88;68.91
41044;BME280;51680;49.806;18.774;2024-01-27T06:11:23;98097.03;;;5.92;68.80
41044;BME280;51680;49.806;18.774;2024-01-27T06:14:26;98089.44;;;5.86;68.20
41044;BME280;51680;49.806;18.774;2024-01-27T06:17:28;98093.91;;;5.82;68.85
41044;BME280;51680;49.806;18.774;2024-01-27T06:20:30;98101.53;;;5.87;68.81
41044;BME280;51680;49.806;18.774;2024-01-27T06:23:32;98115.22;;;5.90;68.68
41044;BME280;51680;49.806;18.774;2024-01-27T06:26:34;98113.56;;;5.88;68.70
41044;BME280;51680;49.806;18.774;2024-01-27T06:29:37;98104.03;;;5.88;67.99
41044;BME280;51680;49.806;18.774;2024-01-27T06:32:40;98098.06;;;5.86;67.93
41044;BME280;51680;49.806;18.774;2024-01-27T06:35:42;98114.41;;;5.88;68.00
41044;BME280;51680;49.806;18.774;2024-01-27T06:38:44;98112.63;;;5.90;67.55
41044;BME280;51680;49.806;18.774;2024-01-27T06:41:45;98113.44;;;5.91;68.01
41044;BME280;51680;49.806;18.774;2024-01-27T06:44:49;98119.59;;;5.88;68.08
41044;BME280;51680;49.806;18.774;2024-01-27T06:47:51;98128.16;;;5.90;67.77
41044;BME280;51680;49.806;18.774;2024-01-27T06:50:52;98114.56;;;5.84;67.30
41044;BME280;51680;49.806;18.774;2024-01-27T06:53:54;98117.91;;;5.87;67.94
41044;BME280;51680;49.806;18.774;2024-01-27T06:56:58;98129.13;;;5.88;67.21
41044;BME280;51680;49.806;18.774;2024-01-27T07:00:02;98139.56;;;5.85;66.74
41044;BME280;51680;49.806;18.774;2024-01-27T07:03:04;98147.50;;;5.80;66.38
41044;BME280;51680;49.806;18.774;2024-01-27T07:06:06;98150.09;;;5.79;66.54
41044;BME280;51680;49.806;18.774;2024-01-27T07:09:08;98159.72;;;5.75;66.06
41044;BME280;51680;49.806;18.774;2024-01-27T07:12:10;98153.59;;;5.78;66.44
41044;BME280;51680;49.806;18.774;2024-01-27T07:15:13;98152.06;;;5.72;65.92
41044;BME280;51680;49.806;18.774;2024-01-27T07:18:15;98166.59;;;5.76;65.94
41044;BME280;51680;49.806;18.774;2024-01-27T07:21:18;98168.22;;;5.80;65.77
41044;BME280;51680;49.806;18.774;2024-01-27T07:24:20;98151.81;;;5.80;65.20
41044;BME280;51680;49.806;18.774;2024-01-27T07:27:22;98159.72;;;5.75;64.44
41044;BME280;51680;49.806;18.774;2024-01-27T07:30:25;98163.16;;;5.76;64.83
41044;BME280;51680;49.806;18.774;2024-01-27T07:33:27;98161.41;;;5.76;65.33
41044;BME280;51680;49.806;18.774;2024-01-27T07:36:29;98173.47;;;5.77;65.01
41044;BME280;51680;49.806;18.774;2024-01-27T07:39:33;98179.38;;;5.82;65.50
41044;BME280;51680;49.806;18.774;2024-01-27T07:42:34;98168.97;;;5.84;65.51
41044;BME280;51680;49.806;18.774;2024-01-27T07:45:38;98182.78;;;5.84;65.30
41044;BME280;51680;49.806;18.774;2024-01-27T07:48:40;98183.63;;;5.85;65.31
41044;BME280;51680;49.806;18.774;2024-01-27T07:51:41;98184.31;;;5.90;65.36
41044;BME280;51680;49.806;18.774;2024-01-27T07:54:43;98190.34;;;5.90;65.02
41044;BME280;51680;49.806;18.774;2024-01-27T07:57:45;98185.91;;;5.94;65.34
41044;BME280;51680;49.806;18.774;2024-01-27T08:00:48;98192.69;;;5.98;65.17
41044;BME280;51680;49.806;18.774;2024-01-27T08:03:50;98179.69;;;5.99;65.07
41044;BME280;51680;49.806;18.774;2024-01-27T08:06:53;98181.31;;;6.02;65.16
41044;BME280;51680;49.806;18.774;2024-01-27T08:09:55;98189.06;;;6.03;64.97
41044;BME280;51680;49.806;18.774;2024-01-27T08:12:57;98172.47;;;6.07;65.37
41044;BME280;51680;49.806;18.774;2024-01-27T08:16:01;98167.19;;;6.10;64.48
41044;BME280;51680;49.806;18.774;2024-01-27T08:19:03;98168.75;;;6.16;64.60
41044;BME280;51680;49.806;18.774;2024-01-27T08:22:05;98147.22;;;6.14;64.23
41044;BME280;51680;49.806;18.774;2024-01-27T08:25:07;98160.03;;;6.18;64.73
41044;BME280;51680;49.806;18.774;2024-01-27T08:28:09;98166.00;;;6.20;63.86
41044;BME280;51680;49.806;18.774;2024-01-27T08:31:12;98171.94;;;6.22;64.15
41044;BME280;51680;49.806;18.774;2024-01-27T08:34:14;98164.91;;;6.27;64.69
41044;BME280;51680;49.806;18.774;2024-01-27T08:37:18;98167.38;;;6.30;64.55
41044;BME280;51680;49.806;18.774;2024-01-27T08:40:20;98160.13;;;6.15;61.19
41044;BME280;51680;49.806;18.774;2024-01-27T08:43:21;98178.00;;;6.23;64.55
41044;BME280;51680;49.806;18.774;2024-01-27T08:46:25;98179.59;;;6.27;64.54
41044;BME280;51680;49.806;18.774;2024-01-27T08:49:26;98173.69;;;6.23;63.16
41044;BME280;51680;49.806;18.774;2024-01-27T08:52:28;98189.97;;;6.27;63.38
41044;BME280;51680;49.806;18.774;2024-01-27T08:55:30;98188.91;;;6.32;63.41
41044;BME280;51680;49.806;18.774;2024-01-27T08:58:32;98192.97;;;6.39;63.46
41044;BME280;51680;49.806;18.774;2024-01-27T09:01:35;98176.63;;;6.37;62.79
41044;BME280;51680;49.806;18.774;2024-01-27T09:04:37;98190.47;;;6.36;64.00
41044;BME280;51680;49.806;18.774;2024-01-27T09:07:39;98195.47;;;6.42;63.63
41044;BME280;51680;49.806;18.774;2024-01-27T09:10:40;98185.88;;;6.44;63.65
41044;BME280;51680;49.806;18.774;2024-01-27T09:13:42;98187.53;;;6.47;63.59
41044;BME280;51680;49.806;18.774;2024-01-27T09:16:47;98182.59;;;6.39;62.85
41044;BME280;51680;49.806;18.774;2024-01-27T09:19:49;98191.38;;;6.35;63.48
41044;BME280;51680;49.806;18.774;2024-01-27T09:22:51;98190.59;;;6.33;63.24
41044;BME280;51680;49.806;18.774;2024-01-27T09:25:53;98193.03;;;6.38;63.50
41044;BME280;51680;49.806;18.774;2024-01-27T09:28:54;98199.06;;;6.38;63.68
41044;BME280;51680;49.806;18.774;2024-01-27T09:31:58;98208.34;;;6.44;62.81
41044;BME280;51680;49.806;18.774;2024-01-27T09:34:59;98205.06;;;6.39;62.91
41044;BME280;51680;49.806;18.774;2024-01-27T09:38:01;98206.03;;;6.36;62.69
41044;BME280;51680;49.806;18.774;2024-01-27T09:41:03;98193.88;;;6.38;62.70
41044;BME280;51680;49.806;18.774;2024-01-27T09:44:05;98187.00;;;6.37;62.63
41044;BME280;51680;49.806;18.774;2024-01-27T09:47:08;98201.88;;;6.32;63.13
41044;BME280;51680;49.806;18.774;2024-01-27T09:50:11;98220.03;;;6.32;63.13
41044;BME280;51680;49.806;18.774;2024-01-27T09:53:13;98204.66;;;6.26;63.83
41044;BME280;51680;49.806;18.774;2024-01-27T09:56:15;98215.44;;;6.14;64.54
41044;BME280;51680;49.806;18.774;2024-01-27T09:59:19;98208.59;;;6.13;64.86
41044;BME280;51680;49.806;18.774;2024-01-27T10:02:27;98210.31;;;6.13;63.99
41044;BME280;51680;49.806;18.774;2024-01-27T10:05:30;98208.50;;;6.15;64.33
41044;BME280;51680;49.806;18.774;2024-01-27T10:08:32;98208.19;;;6.24;64.58
41044;BME280;51680;49.806;18.774;2024-01-27T10:11:36;98209.78;;;6.28;64.35
41044;BME280;51680;49.806;18.774;2024-01-27T10:14:38;98212.44;;;6.26;64.96
41044;BME280;51680;49.806;18.774;2024-01-27T10:17:42;98206.47;;;6.24;65.17
41044;BME280;51680;49.806;18.774;2024-01-27T10:20:43;98206.56;;;6.21;65.11
41044;BME280;51680;49.806;18.774;2024-01-27T10:23:47;98203.13;;;6.21;65.09
41044;BME280;51680;49.806;18.774;2024-01-27T10:26:49;98198.91;;;6.18;64.93
41044;BME280;51680;49.806;18.774;2024-01-27T10:29:54;98199.69;;;6.20;64.88
41044;BME280;51680;49.806;18.774;2024-01-27T10:32:58;98185.09;;;6.18;65.59
41044;BME280;51680;49.806;18.774;2024-01-27T10:36:00;98198.00;;;6.19;65.91
41044;BME280;51680;49.806;18.774;2024-01-27T10:39:02;98190.00;;;6.25;65.89
41044;BME280;51680;49.806;18.774;2024-01-27T10:42:05;98196.97;;;6.25;66.14
41044;BME280;51680;49.806;18.774;2024-01-27T10:45:09;98184.88;;;6.24;66.34
41044;BME280;51680;49.806;18.774;2024-01-27T10:48:14;98190.81;;;6.27;66.73
41044;BME280;51680;49.806;18.774;2024-01-27T10:51:18;98188.28;;;6.26;66.22
41044;BME280;51680;49.806;18.774;2024-01-27T10:54:25;98188.31;;;6.24;66.88
41044;BME280;51680;49.806;18.774;2024-01-27T10:57:28;98180.84;;;6.15;67.51
41044;BME280;51680;49.806;18.774;2024-01-27T11:00:31;98171.00;;;6.00;68.66
41044;BME280;51680;49.806;18.774;2024-01-27T11:03:37;98171.22;;;5.94;68.63
41044;BME280;51680;49.806;18.774;2024-01-27T11:08:53;98196.50;;;6.12;68.89
41044;BME280;51680;49.806;18.774;2024-01-27T11:11:56;98197.13;;;6.19;68.26
41044;BME280;51680;49.806;18.774;2024-01-27T11:14:58;98210.78;;;6.24;67.94
41044;BME280;51680;49.806;18.774;2024-01-27T11:18:00;98205.66;;;6.22;67.85
41044;BME280;51680;49.806;18.774;2024-01-27T11:21:03;98206.69;;;6.18;68.19
41044;BME280;51680;49.806;18.774;2024-01-27T11:24:17;98211.88;;;6.18;67.37
41044;BME280;51680;49.806;18.774;2024-01-27T11:27:19;98189.88;;;6.04;67.81
41044;BME280;51680;49.806;18.774;2024-01-27T11:30:29;98196.63;;;6.09;67.88
41044;BME280;51680;49.806;18.774;2024-01-27T11:33:40;98196.63;;;6.09;67.74
41044;BME280;51680;49.806;18.774;2024-01-27T11:36:43;98190.34;;;6.15;67.68
41044;BME280;51680;49.806;18.774;2024-01-27T11:39:46;98199.78;;;6.17;67.19
41044;BME280;51680;49.806;18.774;2024-01-27T11:42:54;98173.84;;;6.17;67.26
41044;BME280;51680;49.806;18.774;2024-01-27T11:45:57;98204.97;;;6.17;66.75
41044;BME280;51680;49.806;18.774;2024-01-27T11:48:59;98212.66;;;6.20;66.84
41044;BME280;51680;49.806;18.774;2024-01-27T11:52:01;98185.72;;;6.24;66.07
41044;BME280;51680;49.806;18.774;2024-01-27T11:55:05;98187.28;;;6.30;66.08
41044;BME280;51680;49.806;18.774;2024-01-27T11:58:06;98189.00;;;6.29;66.23
41044;BME280;51680;49.806;18.774;2024-01-27T12:01:08;98216.53;;;6.33;66.05
41044;BME280;51680;49.806;18.774;2024-01-27T12:04:10;98199.28;;;6.32;66.06
41044;BME280;51680;49.806;18.774;2024-01-27T12:07:14;98188.91;;;6.32;65.26
41044;BME280;51680;49.806;18.774;2024-01-27T12:10:20;98200.94;;;6.35;65.50
41044;BME280;51680;49.806;18.774;2024-01-27T12:13:23;98214.84;;;6.32;65.64
41044;BME280;51680;49.806;18.774;2024-01-27T12:16:25;98208.75;;;6.33;65.92
41044;BME280;51680;49.806;18.774;2024-01-27T12:19:27;98222.50;;;6.35;65.84
41044;BME280;51680;49.806;18.774;2024-01-27T12:22:29;98207.75;;;6.37;65.60
41044;BME280;51680;49.806;18.774;2024-01-27T12:25:33;98218.31;;;6.31;65.71
41044;BME280;51680;49.806;18.774;2024-01-27T12:28:34;98234.72;;;6.32;65.82
41044;BME280;51680;49.806;18.774;2024-01-27T12:31:38;98236.31;;;6.36;65.98
41044;BME280;51680;49.806;18.774;2024-01-27T12:34:40;98233.59;;;6.39;66.03
41044;BME280;51680;49.806;18.774;2024-01-27T12:37:43;98243.16;;;6.38;65.69
41044;BME280;51680;49.806;18.774;2024-01-27T12:40:46;98225.00;;;6.38;65.79
41044;BME280;51680;49.806;18.774;2024-01-27T12:43:48;98244.78;;;6.41;66.13
41044;BME280;51680;49.806;18.774;2024-01-27T12:46:50;98231.00;;;6.39;66.33
41044;BME280;51680;49.806;18.774;2024-01-27T12:49:52;98242.34;;;6.36;65.77
41044;BME280;51680;49.806;18.774;2024-01-27T12:52:54;98253.59;;;6.35;65.94
41044;BME280;51680;49.806;18.774;2024-01-27T12:55:58;98252.69;;;6.36;66.40
41044;BME280;51680;49.806;18.774;2024-01-27T12:58:59;98253.78;;;6.31;66.57
41044;BME280;51680;49.806;18.774;2024-01-27T13:02:01;98269.34;;;6.31;66.88
41044;BME280;51680;49.806;18.774;2024-01-27T13:05:03;98264.03;;;6.34;67.57
41044;BME280;51680;49.806;18.774;2024-01-27T13:08:05;98276.19;;;6.32;67.37
41044;BME280;51680;49.806;18.774;2024-01-27T13:11:10;98273.66;;;6.30;67.65
41044;BME280;51680;49.806;18.774;2024-01-27T13:14:13;98277.91;;;6.33;68.04
41044;BME280;51680;49.806;18.774;2024-01-27T13:17:16;98288.38;;;6.30;67.93
41044;BME280;51680;49.806;18.774;2024-01-27T13:20:19;98262.38;;;6.31;68.09
41044;BME280;51680;49.806;18.774;2024-01-27T13:23:21;98275.56;;;6.25;68.88
41044;BME280;51680;49.806;18.774;2024-01-27T13:26:24;98288.81;;;6.16;69.58
41044;BME280;51680;49.806;18.774;2024-01-27T13:29:26;98304.59;;;6.09;69.60
41044;BME280;51680;49.806;18.774;2024-01-27T13:32:28;98309.00;;;6.07;70.40
41044;BME280;51680;49.806;18.774;2024-01-27T13:35:30;98315.19;;;6.03;70.86
41044;BME280;51680;49.806;18.774;2024-01-27T13:38:32;98312.50;;;6.06;71.26
41044;BME280;51680;49.806;18.774;2024-01-27T13:41:37;98303.78;;;6.08;71.60
41044;BME280;51680;49.806;18.774;2024-01-27T13:44:39;98315.19;;;6.03;71.76
41044;BME280;51680;49.806;18.774;2024-01-27T13:47:41;98323.06;;;5.98;72.20
41044;BME280;51680;49.806;18.774;2024-01-27T13:50:43;98329.97;;;5.99;71.78
41044;BME280;51680;49.806;18.774;2024-01-27T13:53:45;98323.06;;;5.98;72.45
41044;BME280;51680;49.806;18.774;2024-01-27T13:56:49;98329.13;;;5.99;72.83
41044;BME280;51680;49.806;18.774;2024-01-27T13:59:50;98322.25;;;5.98;72.28
41044;BME280;51680;49.806;18.774;2024-01-27T14:02:52;98335.31;;;5.93;72.09
41044;BME280;51680;49.806;18.774;2024-01-27T14:05:55;98326.56;;;5.97;72.44
41044;BME280;51680;49.806;18.774;2024-01-27T14:08:57;98306.75;;;5.96;72.77
41044;BME280;51680;49.806;18.774;2024-01-27T14:12:00;98326.53;;;5.99;71.93
41044;BME280;51680;49.806;18.774;2024-01-27T14:15:03;98326.41;;;6.03;72.08
41044;BME280;51680;49.806;18.774;2024-01-27T14:18:07;98334.19;;;6.03;72.10
41044;BME280;51680;49.806;18.774;2024-01-27T14:21:09;98341.00;;;6.06;71.37
41044;BME280;51680;49.806;18.774;2024-01-27T14:24:11;98333.16;;;6.07;71.60
41044;BME280;51680;49.806;18.774;2024-01-27T14:27:14;98327.88;;;6.10;71.85
41044;BME280;51680;49.806;18.774;2024-01-27T14:30:20;98340.06;;;6.08;71.53
41044;BME280;51680;49.806;18.774;2024-01-27T14:33:23;98355.63;;;6.08;72.11
41044;BME280;51680;49.806;18.774;2024-01-27T14:36:25;98370.22;;;6.11;72.02
41044;BME280;51680;49.806;18.774;2024-01-27T14:39:27;98368.41;;;6.13;72.07
41044;BME280;51680;49.806;18.774;2024-01-27T14:42:32;98383.09;;;6.12;72.45
41044;BME280;51680;49.806;18.774;2024-01-27T14:45:36;98379.66;;;6.13;72.39
41044;BME280;51680;49.806;18.774;2024-01-27T14:48:38;98383.88;;;6.16;72.48
41044;BME280;51680;49.806;18.774;2024-01-27T14:51:40;98391.59;;;6.17;72.18
41044;BME280;51680;49.806;18.774;2024-01-27T14:54:41;98393.38;;;6.15;72.83
41044;BME280;51680;49.806;18.774;2024-01-27T14:57:45;98383.88;;;6.16;73.34
41044;BME280;51680;49.806;18.774;2024-01-27T15:00:47;98395.97;;;6.15;73.09
41044;BME280;51680;49.806;18.774;2024-01-27T15:03:52;98393.47;;;6.12;73.25
41044;BME280;51680;49.806;18.774;2024-01-27T15:06:55;98397.84;;;6.12;73.06
41044;BME280;51680;49.806;18.774;2024-01-27T15:09:57;98402.97;;;6.13;72.98
41044;BME280;51680;49.806;18.774;2024-01-27T15:13:00;98400.28;;;6.16;73.45
41044;BME280;51680;49.806;18.774;2024-01-27T15:16:03;98414.09;;;6.17;72.96
41044;BME280;51680;49.806;18.774;2024-01-27T15:19:05;98414.06;;;6.18;73.28
41044;BME280;51680;49.806;18.774;2024-01-27T15:22:07;98440.03;;;6.15;73.07
41044;BME280;51680;49.806;18.774;2024-01-27T15:25:09;98440.94;;;6.14;72.88
41044;BME280;51680;49.806;18.774;2024-01-27T15:28:13;98448.69;;;6.16;73.12
41044;BME280;51680;49.806;18.774;2024-01-27T15:31:14;98450.34;;;6.18;73.40
41044;BME280;51680;49.806;18.774;2024-01-27T15:34:16;98455.41;;;6.21;72.84
41044;BME280;51680;49.806;18.774;2024-01-27T15:37:18;98458.81;;;6.23;72.99
41044;BME280;51680;49.806;18.774;2024-01-27T15:40:20;98463.91;;;6.26;73.08
41044;BME280;51680;49.806;18.774;2024-01-27T15:43:23;98471.63;;;6.28;73.17
41044;BME280;51680;49.806;18.774;2024-01-27T15:46:25;98474.28;;;6.26;73.50
41044;BME280;51680;49.806;18.774;2024-01-27T15:49:27;98481.09;;;6.29;73.06
41044;BME280;51680;49.806;18.774;2024-01-27T15:52:29;98487.94;;;6.31;72.99
41044;BME280;51680;49.806;18.774;2024-01-27T15:55:31;98486.13;;;6.35;73.06
41044;BME280;51680;49.806;18.774;2024-01-27T15:58:35;98492.97;;;6.37;73.19
41044;BME280;51680;49.806;18.774;2024-01-27T16:01:37;98502.44;;;6.38;73.44
41044;BME280;51680;49.806;18.774;2024-01-27T16:04:39;98497.25;;;6.38;73.61
41044;BME280;51680;49.806;18.774;2024-01-27T16:07:41;98510.25;;;6.37;73.40